LHSM/SOB METAR and TAF weather

Enter ICAO airport designator
Station Type Date Time Source
LHSM METAR 2021/05/13 05:45 UTC NOAA

LHSM 130545Z AUTO 24003KT 9999 BKN008 BKN029 13/12 Q1003 NOSIG


Station Type Date Time Source
LHSM Decoded METAR 2021/05/13 05:45 UTC NOAA

Station name not available
May 13, 2021 - 01:45 AM EDT / 2021.05.13 0545 UTC
Wind: from the WSW (240 degrees) at 3 MPH (3 KT):0
Visibility: greater than 7 mile(s):0
Sky conditions: mostly cloudy
Temperature: 55 F (13 C)
Dew Point: 53 F (12 C)
Relative Humidity: 93%
Pressure (altimeter): 29.62 in. Hg (1003 hPa)
ob: LHSM 130545Z AUTO 24003KT 9999 BKN008 BKN029 13/12 Q1003 NOSIG
cycle: 6

Station Type Date Time Source
LHSM TAF UTC NOAA

Error!

Example: see airport list